createdAt,value
2018-01-11T00:01:27.953Z,86.10
2018-01-11T00:03:57.801Z,86.70
2018-01-11T00:09:19.004Z,88.30
2018-01-11T00:11:48.540Z,87.10
2018-01-11T00:14:18.369Z,86.70
2018-01-11T00:16:53.226Z,86.30
2018-01-11T00:19:22.667Z,86.50
2018-01-11T00:24:50.155Z,87.10
2018-01-11T00:27:19.687Z,87.30
2018-01-11T00:29:49.621Z,86.00
2018-01-11T00:32:18.729Z,85.50
2018-01-11T00:34:48.070Z,84.50
2018-01-11T00:37:17.360Z,84.80
2018-01-11T00:39:46.757Z,86.10
2018-01-11T00:42:20.812Z,86.90
2018-01-11T00:44:52.897Z,87.10
2018-01-11T00:47:22.616Z,87.30
2018-01-11T00:49:54.665Z,86.70
2018-01-11T00:52:23.147Z,86.70
2018-01-11T01:09:01.502Z,84.60
2018-01-11T01:11:30.667Z,84.70
2018-01-11T01:19:55.553Z,85.60
2018-01-11T01:22:24.241Z,85.70
2018-01-11T01:24:52.828Z,86.40
2018-01-11T01:27:21.836Z,86.50
2018-01-11T01:29:57.058Z,87.70
2018-01-11T01:32:25.638Z,88.80
2018-01-11T01:34:53.823Z,89.00
2018-01-11T01:37:23.715Z,88.30
2018-01-11T01:39:55.319Z,88.30
2018-01-11T01:42:24.690Z,88.40
2018-01-11T01:44:53.658Z,88.80
2018-01-11T01:47:22.072Z,89.50
2018-01-11T01:49:53.146Z,89.80
2018-01-11T01:52:22.548Z,90.20
2018-01-11T01:57:46.620Z,89.60
2018-01-11T02:00:15.460Z,89.70
2018-01-11T02:02:44.066Z,88.80
2018-01-11T02:05:13.651Z,88.70
2018-01-11T02:07:47.109Z,88.50
2018-01-11T02:21:50.354Z,87.50
2018-01-11T02:24:19.617Z,87.70
2018-01-11T02:26:49.331Z,87.10
2018-01-11T02:29:19.011Z,86.90
2018-01-11T02:31:49.036Z,86.70
2018-01-11T02:34:21.231Z,86.60
2018-01-11T02:36:49.872Z,85.90
2018-01-11T02:39:25.880Z,86.20
2018-01-11T02:41:55.276Z,86.90
2018-01-11T02:47:07.650Z,86.60
2018-01-11T02:49:36.435Z,85.90
2018-01-11T02:52:06.362Z,85.50
2018-01-11T02:54:35.836Z,86.60
2018-01-11T03:08:35.308Z,87.10
2018-01-11T03:11:10.277Z,88.50
2018-01-11T03:13:44.021Z,89.00
2018-01-11T03:16:14.037Z,89.10
2018-01-11T03:18:44.862Z,88.40
2018-01-11T03:21:13.389Z,89.80
2018-01-11T03:23:46.882Z,90.70
2018-01-11T03:26:16.252Z,90.40
2018-01-11T03:28:45.097Z,90.10
2018-01-11T03:31:20.541Z,90.00
2018-01-11T03:33:49.252Z,89.90
2018-01-11T03:36:18.024Z,90.00
2018-01-11T03:38:51.255Z,90.70
2018-01-11T03:41:20.698Z,91.00
2018-01-11T03:43:49.531Z,90.00
2018-01-11T03:49:02.516Z,87.20
2018-01-11T03:51:31.286Z,86.90
2018-01-11T03:53:59.931Z,86.80
2018-01-11T03:56:29.459Z,86.50
2018-01-11T03:59:02.276Z,85.90
2018-01-11T04:01:30.574Z,85.70
2018-01-11T04:03:59.412Z,85.40
2018-01-11T04:06:28.764Z,87.00
2018-01-11T04:08:57.580Z,88.40
2018-01-11T04:11:31.023Z,88.20
2018-01-11T04:13:59.402Z,89.60
2018-01-11T04:16:32.846Z,88.90
2018-01-11T04:19:02.161Z,88.20
2018-01-11T04:21:37.618Z,88.90
2018-01-11T04:24:05.594Z,87.70
2018-01-11T04:26:38.551Z,87.00
2018-01-11T04:29:07.213Z,87.50
2018-01-11T04:31:39.627Z,88.90
2018-01-11T04:34:09.128Z,88.00
2018-01-11T04:36:40.912Z,87.60
2018-01-11T04:39:10.436Z,86.80
2018-01-11T04:41:42.575Z,87.00
2018-01-11T04:44:12.035Z,86.80
2018-01-11T04:46:41.816Z,86.70
2018-01-11T04:49:13.802Z,85.40
2018-01-11T04:51:42.768Z,84.30
2018-01-11T04:54:11.302Z,82.30
2018-01-11T04:56:41.181Z,81.10
2018-01-11T04:59:09.699Z,81.20
2018-01-11T05:01:38.270Z,81.10
2018-01-11T05:04:07.384Z,80.80
2018-01-11T05:06:40.441Z,81.70
2018-01-11T05:09:09.465Z,80.80
2018-01-11T05:11:44.139Z,82.60
2018-01-11T05:16:50.638Z,84.60
2018-01-11T05:19:20.261Z,83.50
2018-01-11T05:21:50.506Z,83.50
2018-01-11T05:24:22.547Z,84.80
2018-01-11T05:26:52.302Z,84.80
2018-01-11T05:29:21.665Z,85.50
2018-01-11T05:31:50.380Z,85.40
2018-01-11T05:34:19.301Z,85.70
2018-01-11T05:36:49.183Z,85.40
2018-01-11T05:39:18.849Z,85.90
2018-01-11T05:41:52.214Z,86.10
2018-01-11T05:44:20.757Z,87.00
2018-01-11T05:46:53.045Z,87.10
2018-01-11T05:49:22.609Z,87.40
2018-01-11T05:51:53.642Z,86.80
2018-01-11T05:54:22.580Z,86.70
2018-01-11T05:56:57.806Z,85.30
2018-01-11T05:59:32.374Z,84.80
2018-01-11T06:04:41.599Z,86.20
2018-01-11T06:07:11.574Z,86.80
2018-01-11T06:09:45.776Z,86.80
2018-01-11T06:12:15.105Z,86.60
2018-01-11T06:14:45.816Z,86.30
2018-01-11T06:22:34.095Z,84.60
2018-01-11T06:25:02.772Z,84.10
2018-01-11T06:27:36.815Z,83.90
2018-01-11T06:30:07.216Z,84.60
2018-01-11T06:32:35.823Z,84.30
2018-01-11T06:35:04.580Z,84.10
2018-01-11T06:37:38.956Z,83.60
2018-01-11T06:40:07.482Z,82.60
2018-01-11T06:42:36.663Z,82.50
2018-01-11T06:45:05.453Z,82.10
2018-01-11T06:47:35.276Z,83.10
2018-01-11T06:50:06.105Z,82.80
2018-01-11T06:52:35.055Z,83.90
2018-01-11T06:55:03.620Z,88.90
2018-01-11T06:57:33.200Z,93.20
2018-01-11T07:00:01.787Z,83.90
2018-01-11T07:02:30.958Z,82.70
2018-01-11T07:05:03.702Z,83.90
2018-01-11T07:07:30.503Z,84.30
2018-01-11T07:10:03.528Z,84.10
2018-01-11T07:15:18.410Z,83.30
2018-01-11T07:17:49.751Z,83.40
2018-01-11T07:20:18.250Z,83.20
2018-01-11T07:22:47.124Z,82.00
2018-01-11T07:25:16.917Z,81.40
2018-01-11T07:27:45.289Z,80.70
2018-01-11T07:30:19.034Z,80.90
2018-01-11T07:32:52.864Z,81.00
2018-01-11T07:35:26.460Z,81.20
2018-01-11T07:37:59.882Z,81.70
2018-01-11T07:40:30.102Z,82.10
2018-01-11T07:42:59.418Z,82.50
2018-01-11T07:45:31.712Z,81.90
2018-01-11T07:48:00.255Z,81.90
2018-01-11T07:50:28.922Z,81.40
2018-01-11T07:52:58.281Z,81.50
2018-01-11T07:55:32.124Z,81.20
2018-01-11T07:58:01.044Z,80.20
2018-01-11T08:00:29.650Z,79.70
2018-01-11T08:03:03.308Z,80.70
2018-01-11T08:05:32.682Z,80.20
2018-01-11T08:08:01.322Z,81.00
2018-01-11T08:10:33.469Z,80.80
2018-01-11T08:13:07.160Z,80.30
2018-01-11T08:15:36.501Z,80.80
2018-01-11T08:18:05.051Z,81.40
2018-01-11T08:20:37.952Z,81.90
2018-01-11T08:23:11.191Z,82.50
2018-01-11T08:25:39.753Z,81.50
2018-01-11T08:28:09.461Z,81.40
2018-01-11T08:30:43.073Z,81.40
2018-01-11T08:33:11.574Z,81.30
2018-01-11T08:35:39.915Z,82.40
2018-01-11T08:38:12.945Z,83.30
2018-01-11T08:40:41.590Z,83.10
2018-01-11T08:45:48.776Z,83.10
2018-01-11T08:48:22.034Z,81.70
2018-01-11T08:50:51.512Z,80.80
2018-01-11T08:53:21.994Z,81.20
2018-01-11T08:55:51.462Z,81.50
2018-01-11T08:58:19.809Z,82.30
2018-01-11T09:03:33.485Z,81.70
2018-01-11T09:06:02.779Z,80.90
2018-01-11T09:08:32.168Z,80.80
2018-01-11T09:11:04.228Z,80.60
2018-01-11T09:13:33.067Z,79.50
2018-01-11T09:16:06.893Z,80.30
2018-01-11T09:18:36.763Z,79.80
2018-01-11T09:21:08.361Z,78.40
2018-01-11T09:37:49.764Z,78.90
2018-01-11T09:42:47.978Z,73.00
2018-01-11T09:45:17.183Z,73.80
2018-01-11T09:47:47.502Z,75.50
2018-01-11T09:50:17.058Z,73.30
2018-01-11T09:52:46.565Z,75.20
2018-01-11T09:55:15.873Z,75.80
2018-01-11T09:57:44.665Z,74.80
2018-01-11T10:00:16.837Z,75.00
2018-01-11T10:05:30.679Z,69.30
2018-01-11T10:08:00.488Z,71.80
2018-01-11T10:10:29.145Z,68.60
2018-01-11T10:12:57.532Z,68.50
2018-01-11T10:15:25.813Z,67.30
2018-01-11T10:18:02.576Z,64.50
2018-01-11T10:20:34.771Z,57.50
2018-01-11T10:25:46.837Z,59.00
2018-01-11T10:28:16.041Z,56.30
2018-01-11T10:30:44.899Z,57.30
2018-01-11T10:33:13.880Z,57.20
2018-01-11T10:35:43.123Z,55.10
2018-01-11T10:38:12.463Z,56.10
2018-01-11T10:40:41.779Z,58.10
2018-01-11T10:43:15.109Z,55.00
2018-01-11T10:45:44.927Z,55.70
2018-01-11T10:48:18.272Z,53.30
2018-01-11T10:50:46.844Z,51.00
2018-01-11T10:53:20.553Z,51.30
2018-01-11T10:55:54.138Z,55.00
2018-01-11T10:58:27.142Z,50.60
2018-01-11T11:01:01.383Z,49.50
2018-01-11T11:03:30.541Z,48.40
2018-01-11T11:05:59.266Z,47.80
2018-01-11T11:11:11.195Z,49.60
2018-01-11T11:13:41.202Z,46.90
2018-01-11T11:16:09.370Z,45.80
2018-01-11T11:18:42.831Z,44.50
2018-01-11T11:21:11.459Z,43.10
2018-01-11T11:23:40.524Z,43.90
2018-01-11T11:26:15.473Z,43.80
2018-01-11T11:28:45.537Z,44.60
2018-01-11T11:31:13.708Z,43.60
2018-01-11T11:33:42.881Z,44.70
2018-01-11T11:36:17.752Z,45.70
2018-01-11T11:38:50.245Z,41.00
2018-01-11T11:41:24.161Z,41.00
2018-01-11T11:43:52.562Z,42.40
2018-01-11T11:46:25.487Z,43.70
2018-01-11T11:48:58.916Z,43.90
2018-01-11T11:51:28.978Z,47.40
2018-01-11T11:53:58.065Z,44.10
2018-01-11T11:56:26.346Z,43.20
2018-01-11T11:58:54.480Z,43.80
2018-01-11T12:01:22.799Z,44.80
2018-01-11T12:03:51.564Z,44.60
2018-01-11T12:06:20.594Z,44.00
2018-01-11T12:08:49.133Z,43.80
2018-01-11T12:11:18.443Z,43.30
2018-01-11T12:13:50.524Z,42.20
2018-01-11T12:16:19.534Z,40.40
2018-01-11T12:18:48.344Z,40.50
2018-01-11T12:21:16.573Z,40.40
2018-01-11T12:23:49.285Z,39.40
2018-01-11T12:26:18.136Z,39.30
2018-01-11T12:28:46.429Z,39.40
2018-01-11T12:31:15.634Z,40.80
2018-01-11T12:33:44.881Z,39.10
2018-01-11T12:36:18.894Z,40.20
2018-01-11T12:41:26.476Z,43.10
2018-01-11T12:43:54.780Z,41.90
2018-01-11T12:46:28.706Z,40.40
2018-01-11T13:00:34.835Z,41.70
2018-01-11T13:03:04.799Z,39.50
2018-01-11T13:05:38.101Z,38.60
2018-01-11T13:08:11.414Z,39.20
2018-01-11T13:10:40.229Z,40.20
2018-01-11T13:13:08.403Z,39.30
2018-01-11T13:15:41.698Z,40.20
2018-01-11T13:18:09.963Z,40.40
2018-01-11T13:20:38.890Z,41.20
2018-01-11T13:23:07.191Z,41.10
2018-01-11T13:25:42.049Z,41.10
2018-01-11T13:28:10.578Z,40.60
2018-01-11T13:30:40.193Z,39.60
2018-01-11T13:33:08.582Z,40.10
2018-01-11T13:35:40.473Z,41.30
2018-01-11T13:38:09.180Z,40.50
2018-01-11T13:40:43.691Z,41.10
2018-01-11T13:43:11.944Z,42.50
2018-01-11T13:45:40.357Z,42.80
2018-01-11T13:48:12.447Z,42.70
2018-01-11T13:50:40.737Z,42.60
2018-01-11T13:53:13.140Z,42.20
2018-01-11T13:55:42.626Z,42.00
2018-01-11T14:00:56.996Z,40.20
2018-01-11T14:03:26.264Z,41.40
2018-01-11T14:05:55.282Z,43.00
2018-01-11T14:08:24.606Z,41.40
2018-01-11T14:10:53.456Z,41.70
2018-01-11T14:13:27.595Z,42.20
2018-01-11T14:15:56.186Z,42.90
2018-01-11T14:35:08.805Z,42.00
2018-01-11T14:37:37.469Z,43.40
2018-01-11T14:40:05.906Z,44.70
2018-01-11T14:42:34.655Z,43.80
2018-01-11T14:45:05.004Z,44.60
2018-01-11T14:47:34.411Z,44.30
2018-01-11T14:50:07.268Z,44.70
2018-01-11T14:52:35.402Z,44.90
2018-01-11T14:55:04.636Z,45.40
2018-01-11T14:57:32.732Z,45.60
2018-01-11T15:00:03.731Z,46.20
2018-01-11T15:02:38.282Z,45.90
2018-01-11T15:07:58.489Z,46.40
2018-01-11T15:10:26.683Z,47.90
2018-01-11T15:12:55.957Z,48.80
2018-01-11T15:15:25.172Z,48.80
2018-01-11T15:17:59.012Z,48.80
2018-01-11T15:20:27.339Z,50.60
2018-01-11T15:22:56.337Z,51.90
2018-01-11T15:28:01.194Z,52.20
2018-01-11T15:30:31.540Z,53.40
2018-01-11T15:33:00.234Z,54.00
2018-01-11T15:35:30.146Z,55.10
2018-01-11T15:38:00.211Z,56.70
2018-01-11T15:40:28.440Z,57.00
2018-01-11T15:42:57.756Z,57.00
2018-01-11T15:45:26.989Z,57.90
2018-01-11T15:47:56.197Z,57.80
2018-01-11T15:50:25.443Z,58.10
2018-01-11T15:52:58.201Z,58.60
2018-01-11T15:55:31.071Z,58.50
2018-01-11T15:58:05.343Z,58.50
2018-01-11T16:00:38.615Z,59.00
2018-01-11T16:03:07.123Z,58.70
2018-01-11T16:05:36.375Z,59.60
2018-01-11T16:08:04.820Z,60.10
2018-01-11T16:10:33.205Z,60.20
2018-01-11T16:13:00.856Z,60.50
2018-01-11T16:20:37.172Z,61.40
2018-01-11T16:23:04.803Z,62.00
2018-01-11T16:25:32.512Z,62.60
2018-01-11T16:30:28.272Z,62.10
2018-01-11T16:32:55.919Z,62.00
2018-01-11T16:35:23.630Z,62.50
2018-01-11T16:37:51.281Z,63.70
2018-01-11T16:40:18.954Z,64.20
2018-01-11T16:42:47.533Z,64.10
2018-01-11T16:45:15.233Z,65.20
2018-01-11T16:50:10.673Z,66.00
2018-01-11T16:52:38.354Z,66.80
2018-01-11T16:55:06.023Z,67.80
2018-01-11T16:57:33.760Z,68.40
2018-01-11T17:00:01.404Z,68.60
2018-01-11T17:02:29.040Z,68.90
2018-01-11T17:04:56.779Z,69.20
2018-01-11T17:07:24.493Z,69.20
2018-01-11T17:09:53.122Z,69.40
2018-01-11T17:12:20.860Z,69.30
2018-01-11T17:14:48.538Z,69.10
2018-01-11T17:17:16.171Z,69.60
2018-01-11T17:19:43.911Z,69.50
2018-01-11T17:24:39.771Z,69.70
2018-01-11T17:27:07.490Z,70.60
2018-01-11T17:29:35.259Z,71.20
2018-01-11T17:34:42.401Z,71.40
2018-01-11T17:37:10.505Z,70.90
2018-01-11T17:39:38.179Z,70.30
2018-01-11T17:42:08.005Z,69.60
2018-01-11T17:44:35.683Z,69.50
2018-01-11T17:47:03.331Z,70.60
2018-01-11T17:49:31.059Z,70.10
2018-01-11T17:51:58.711Z,70.70
2018-01-11T17:54:26.364Z,70.70
2018-01-11T17:56:54.107Z,72.50
2018-01-11T17:59:22.650Z,73.10
2018-01-11T18:01:50.313Z,72.90
2018-01-11T18:06:46.586Z,72.60
2018-01-11T18:09:15.661Z,72.10
2018-01-11T18:11:44.238Z,71.40
2018-01-11T18:14:11.963Z,71.80
2018-01-11T18:16:39.608Z,71.50
2018-01-11T18:19:09.234Z,71.50
2018-01-11T18:21:37.451Z,71.80
2018-01-11T18:24:05.109Z,71.90
2018-01-11T18:26:33.225Z,71.60
2018-01-11T18:29:01.348Z,71.80
2018-01-11T18:31:29.046Z,72.00
2018-01-11T18:33:57.034Z,72.40
2018-01-11T18:36:25.282Z,72.50
2018-01-11T18:38:52.939Z,72.20
2018-01-11T18:41:20.663Z,72.70
2018-01-11T18:46:16.059Z,72.30
2018-01-11T18:48:44.656Z,72.00
2018-01-11T18:51:12.319Z,71.60
2018-01-11T18:56:40.600Z,71.20
2018-01-11T18:59:08.327Z,71.40
2018-01-11T19:06:47.682Z,71.10
2018-01-11T19:09:16.108Z,70.50
2018-01-11T19:11:43.872Z,69.30
2018-01-11T19:14:11.537Z,67.30
2018-01-11T19:16:39.748Z,68.50
2018-01-11T19:19:07.471Z,69.00
2018-01-11T19:21:37.714Z,68.50
2018-01-11T19:24:04.208Z,68.70
2018-01-11T19:26:32.414Z,68.00
2018-01-11T19:29:01.169Z,68.80
2018-01-11T19:31:28.898Z,70.10
2018-01-11T19:33:56.585Z,70.90
2018-01-11T19:36:24.485Z,71.70
2018-01-11T19:38:52.753Z,71.70
2018-01-11T19:41:20.432Z,72.30
2018-01-11T19:43:48.121Z,72.90
2018-01-11T19:46:16.533Z,75.30
2018-01-11T19:51:25.091Z,75.90
2018-01-11T19:53:52.958Z,74.80
2018-01-11T19:56:21.062Z,73.40
2018-01-11T19:58:48.758Z,73.60
2018-01-11T20:01:16.837Z,73.00
2018-01-11T20:03:44.456Z,73.80
2018-01-11T20:06:12.139Z,74.30
2018-01-11T20:08:39.842Z,74.00
2018-01-11T20:11:07.496Z,75.60
2018-01-11T20:13:35.366Z,76.70
2018-01-11T20:16:03.071Z,75.80
2018-01-11T20:18:30.728Z,75.60
2018-01-11T20:20:58.389Z,76.10
2018-01-11T20:23:26.122Z,76.70
2018-01-11T20:25:57.376Z,76.10
2018-01-11T20:28:25.410Z,77.80
2018-01-11T20:30:52.969Z,79.30
2018-01-11T20:33:20.738Z,80.10
2018-01-11T20:35:48.908Z,81.20
2018-01-11T20:38:16.666Z,81.90
2018-01-11T20:40:44.320Z,82.10
2018-01-11T20:43:12.075Z,82.10
2018-01-11T20:45:39.770Z,81.90
2018-01-11T20:50:35.207Z,82.60
2018-01-11T20:53:02.902Z,84.50
2018-01-11T20:55:30.586Z,85.80
2018-01-11T20:57:58.253Z,86.10
2018-01-11T21:00:25.948Z,85.60
2018-01-11T21:02:53.576Z,84.80
2018-01-11T21:08:00.471Z,83.50
2018-01-11T21:10:28.047Z,83.50
2018-01-11T21:15:31.564Z,82.40
2018-01-11T21:17:59.829Z,82.40
2018-01-11T21:22:55.075Z,81.80
2018-01-11T21:25:22.733Z,82.60
2018-01-11T21:27:51.352Z,82.90
2018-01-11T21:30:19.024Z,82.50
2018-01-11T21:32:48.264Z,83.10
2018-01-11T21:35:15.908Z,83.20
2018-01-11T21:40:11.243Z,82.60
2018-01-11T21:42:38.927Z,83.60
2018-01-11T21:45:06.832Z,84.20
2018-01-11T21:50:12.710Z,84.00
2018-01-11T21:52:40.366Z,84.50
2018-01-11T21:55:08.308Z,83.20
2018-01-11T21:57:36.007Z,83.20
2018-01-11T22:00:03.704Z,83.20
2018-01-11T22:02:31.327Z,84.30
2018-01-11T22:07:35.722Z,84.50
2018-01-11T22:10:03.464Z,85.70
2018-01-11T22:12:31.164Z,86.20
2018-01-11T22:14:58.766Z,85.80
2018-01-11T22:17:26.518Z,85.30
2018-01-11T22:19:54.345Z,85.10
2018-01-11T22:22:22.000Z,85.00
2018-01-11T22:24:49.702Z,84.40
2018-01-11T22:27:17.319Z,84.20
2018-01-11T22:32:25.570Z,84.00
2018-01-11T22:34:53.214Z,83.30
2018-01-11T22:37:20.878Z,82.70
2018-01-11T22:42:30.561Z,82.70
2018-01-11T22:44:58.215Z,83.40
2018-01-11T22:50:02.434Z,83.10
2018-01-11T22:52:30.254Z,82.90
2018-01-11T22:54:57.865Z,82.20
2018-01-11T22:57:26.006Z,82.60
2018-01-11T22:59:53.564Z,83.00
2018-01-11T23:02:21.184Z,82.40
2018-01-11T23:04:48.973Z,82.50
2018-01-11T23:07:16.651Z,81.60
2018-01-11T23:09:44.322Z,82.20
2018-01-11T23:12:12.434Z,83.30
2018-01-11T23:14:40.100Z,84.30
2018-01-11T23:17:07.770Z,85.00
2018-01-11T23:19:35.471Z,84.90
2018-01-11T23:22:03.118Z,85.60
2018-01-11T23:24:30.760Z,85.40
2018-01-11T23:26:58.470Z,85.90
2018-01-11T23:29:26.118Z,84.90
2018-01-11T23:31:53.773Z,85.20
2018-01-11T23:34:22.669Z,85.60
2018-01-11T23:36:50.319Z,86.00
2018-01-11T23:39:17.999Z,86.50
2018-01-11T23:44:29.919Z,86.90
2018-01-11T23:46:57.635Z,86.40
2018-01-11T23:49:25.287Z,86.40
2018-01-11T23:51:52.935Z,85.90
2018-01-11T23:54:20.647Z,86.30
2018-01-11T23:59:19.990Z,86.60
